SAS1415 ESSA-EKCH
Flight info
| Callsign | SAS1415 |
|---|---|
| Flight time | 0h 57m |
| Altitude | 35000 |
| Route | PETEV N872 ELPAX DCT TOKSI N872 ERNOV |
| Aircraft | A320/M-SDE3FGHIRWXY/ALB1 |
Departure
| Time | 2026-05-07 16:18 |
|---|---|
| Airport | Stockholm-Arlanda Airport (ESSA) |
Arrival
| Time | 2026-05-07 17:16 |
|---|---|
| Airport | Copenhagen Kastrup Airport (EKCH) |
| Time | Latitude | Longitude | Altitude | Speed | Heading |
|---|---|---|---|---|---|
| 2026-05-07 15:51 | 59.65351 | 17.93795 | 117 ft | 0 kts | 257° |
| 2026-05-07 16:03 | 59.65352 | 17.93810 | 116 ft | 2 kts | 257° |
| 2026-05-07 16:04 | 59.65356 | 17.93844 | 113 ft | 2 kts | 257° |
| 2026-05-07 16:04 | 59.65360 | 17.93877 | 112 ft | 2 kts | 257° |
| 2026-05-07 16:04 | 59.65363 | 17.93911 | 114 ft | 3 kts | 287° |
| 2026-05-07 16:04 | 59.65355 | 17.93943 | 114 ft | 3 kts | 322° |
| 2026-05-07 16:05 | 59.65339 | 17.93958 | 115 ft | 3 kts | 358° |
| 2026-05-07 16:05 | 59.65333 | 17.93959 | 115 ft | 0 kts | 358° |
| 2026-05-07 16:07 | 59.65335 | 17.93959 | 115 ft | 1 kts | 358° |
| 2026-05-07 16:07 | 59.65347 | 17.93958 | 116 ft | 1 kts | 359° |
| 2026-05-07 16:08 | 59.65349 | 17.93958 | 116 ft | 0 kts | 359° |
| 2026-05-07 16:09 | 59.65350 | 17.93958 | 116 ft | 2 kts | 359° |
| 2026-05-07 16:09 | 59.65377 | 17.93957 | 115 ft | 6 kts | 359° |
| 2026-05-07 16:09 | 59.65431 | 17.93937 | 113 ft | 9 kts | 345° |
| 2026-05-07 16:09 | 59.65499 | 17.93901 | 115 ft | 11 kts | 345° |
| 2026-05-07 16:10 | 59.65573 | 17.93859 | 116 ft | 10 kts | 331° |
| 2026-05-07 16:10 | 59.65588 | 17.93716 | 113 ft | 13 kts | 253° |
| 2026-05-07 16:10 | 59.65560 | 17.93529 | 117 ft | 15 kts | 255° |
| 2026-05-07 16:10 | 59.65532 | 17.93308 | 117 ft | 18 kts | 256° |
| 2026-05-07 16:11 | 59.65505 | 17.93090 | 116 ft | 16 kts | 255° |
| 2026-05-07 16:11 | 59.65471 | 17.92874 | 116 ft | 12 kts | 251° |
| 2026-05-07 16:11 | 59.65438 | 17.92722 | 114 ft | 10 kts | 246° |
| 2026-05-07 16:11 | 59.65463 | 17.92592 | 118 ft | 12 kts | 324° |
| 2026-05-07 16:12 | 59.65546 | 17.92527 | 118 ft | 14 kts | 345° |
| 2026-05-07 16:12 | 59.65645 | 17.92472 | 119 ft | 16 kts | 345° |
| 2026-05-07 16:12 | 59.65745 | 17.92423 | 121 ft | 14 kts | 352° |
| 2026-05-07 16:12 | 59.65848 | 17.92452 | 121 ft | 16 kts | 11° |
| 2026-05-07 16:13 | 59.65963 | 17.92493 | 121 ft | 18 kts | 9° |
| 2026-05-07 16:13 | 59.66091 | 17.92537 | 123 ft | 20 kts | 10° |
| 2026-05-07 16:13 | 59.66227 | 17.92587 | 124 ft | 17 kts | 11° |
| 2026-05-07 16:13 | 59.66343 | 17.92631 | 124 ft | 13 kts | 11° |
| 2026-05-07 16:14 | 59.66438 | 17.92657 | 121 ft | 13 kts | 0° |
| 2026-05-07 16:14 | 59.66528 | 17.92613 | 124 ft | 14 kts | 338° |
| 2026-05-07 16:14 | 59.66593 | 17.92562 | 124 ft | 8 kts | 331° |
| 2026-05-07 16:14 | 59.66618 | 17.92464 | 126 ft | 8 kts | 269° |
| 2026-05-07 16:15 | 59.66579 | 17.92364 | 124 ft | 10 kts | 210° |
| 2026-05-07 16:15 | 59.66551 | 17.92345 | 124 ft | 0 kts | 194° |
| 2026-05-07 16:17 | 59.66536 | 17.92339 | 124 ft | 5 kts | 191° |
| 2026-05-07 16:17 | 59.66454 | 17.92310 | 124 ft | 38 kts | 189° |
| 2026-05-07 16:17 | 59.65966 | 17.92134 | 121 ft | 103 kts | 190° |
| 2026-05-07 16:18 | 59.65086 | 17.91818 | 120 ft | 152 kts | 190° |
| 2026-05-07 16:18 | 59.64055 | 17.91450 | 662 ft | 151 kts | 190° |
| 2026-05-07 16:18 | 59.63015 | 17.91079 | 1273 ft | 154 kts | 190° |
| 2026-05-07 16:18 | 59.61909 | 17.90675 | 1654 ft | 171 kts | 196° |
| 2026-05-07 16:19 | 59.60870 | 17.89361 | 2022 ft | 189 kts | 229° |
| 2026-05-07 16:19 | 59.60081 | 17.87118 | 2390 ft | 211 kts | 239° |
| 2026-05-07 16:19 | 59.59345 | 17.84489 | 3013 ft | 222 kts | 241° |
| 2026-05-07 16:19 | 59.58588 | 17.81807 | 3859 ft | 225 kts | 242° |
| 2026-05-07 16:20 | 59.57842 | 17.78946 | 4398 ft | 246 kts | 244° |
| 2026-05-07 16:20 | 59.57070 | 17.75810 | 5088 ft | 260 kts | 245° |
| 2026-05-07 16:20 | 59.56082 | 17.72785 | 5982 ft | 266 kts | 230° |
| 2026-05-07 16:20 | 59.54832 | 17.70049 | 6937 ft | 269 kts | 229° |
| 2026-05-07 16:21 | 59.53540 | 17.67351 | 7838 ft | 272 kts | 228° |
| 2026-05-07 16:21 | 59.52220 | 17.64656 | 8769 ft | 274 kts | 228° |
| 2026-05-07 16:21 | 59.50889 | 17.61956 | 9678 ft | 276 kts | 228° |
| 2026-05-07 16:21 | 59.49543 | 17.59230 | 10428 ft | 284 kts | 229° |
| 2026-05-07 16:22 | 59.48117 | 17.56329 | 10687 ft | 307 kts | 229° |
| 2026-05-07 16:22 | 59.46576 | 17.53192 | 10867 ft | 330 kts | 229° |
| 2026-05-07 16:22 | 59.44885 | 17.50007 | 11320 ft | 342 kts | 225° |
| 2026-05-07 16:22 | 59.43095 | 17.46881 | 11996 ft | 347 kts | 224° |
| 2026-05-07 16:23 | 59.41254 | 17.43777 | 12703 ft | 350 kts | 223° |
| 2026-05-07 16:23 | 59.39383 | 17.40670 | 13411 ft | 354 kts | 223° |
| 2026-05-07 16:23 | 59.37518 | 17.37578 | 14073 ft | 357 kts | 223° |
| 2026-05-07 16:23 | 59.35616 | 17.34414 | 14703 ft | 360 kts | 224° |
| 2026-05-07 16:24 | 59.33683 | 17.31177 | 15347 ft | 362 kts | 224° |
| 2026-05-07 16:24 | 59.31772 | 17.27969 | 15996 ft | 363 kts | 224° |
| 2026-05-07 16:24 | 59.29872 | 17.24781 | 16646 ft | 365 kts | 224° |
| 2026-05-07 16:24 | 59.27933 | 17.21537 | 17314 ft | 367 kts | 224° |
| 2026-05-07 16:25 | 59.25987 | 17.18282 | 17993 ft | 370 kts | 224° |
| 2026-05-07 16:25 | 59.24024 | 17.15000 | 18636 ft | 372 kts | 224° |
| 2026-05-07 16:25 | 59.22049 | 17.11703 | 19242 ft | 374 kts | 224° |
| 2026-05-07 16:25 | 59.20061 | 17.08393 | 19844 ft | 377 kts | 224° |
| 2026-05-07 16:26 | 59.18060 | 17.05067 | 20439 ft | 379 kts | 224° |
| 2026-05-07 16:26 | 59.16047 | 17.01723 | 21006 ft | 381 kts | 224° |
| 2026-05-07 16:26 | 59.14023 | 16.98362 | 21540 ft | 383 kts | 224° |
| 2026-05-07 16:26 | 59.11986 | 16.94989 | 22055 ft | 386 kts | 224° |
| 2026-05-07 16:27 | 59.09937 | 16.91607 | 22560 ft | 388 kts | 224° |
| 2026-05-07 16:27 | 59.07873 | 16.88207 | 23046 ft | 390 kts | 224° |
| 2026-05-07 16:27 | 59.05794 | 16.84786 | 23522 ft | 392 kts | 224° |
| 2026-05-07 16:27 | 59.03703 | 16.81357 | 23930 ft | 394 kts | 224° |
| 2026-05-07 16:28 | 59.01599 | 16.77912 | 24321 ft | 396 kts | 224° |
| 2026-05-07 16:28 | 58.99485 | 16.74456 | 24689 ft | 398 kts | 224° |
| 2026-05-07 16:28 | 58.97364 | 16.70988 | 25055 ft | 400 kts | 224° |
| 2026-05-07 16:28 | 58.95235 | 16.67508 | 25424 ft | 402 kts | 224° |
| 2026-05-07 16:29 | 58.93093 | 16.64010 | 25791 ft | 404 kts | 224° |
| 2026-05-07 16:29 | 58.90966 | 16.60540 | 26163 ft | 405 kts | 224° |
| 2026-05-07 16:29 | 58.88803 | 16.57023 | 26521 ft | 407 kts | 224° |
| 2026-05-07 16:29 | 58.86599 | 16.53449 | 26883 ft | 409 kts | 224° |
| 2026-05-07 16:30 | 58.84412 | 16.49912 | 27236 ft | 411 kts | 223° |
| 2026-05-07 16:30 | 58.82216 | 16.46368 | 27576 ft | 413 kts | 223° |
| 2026-05-07 16:30 | 58.80034 | 16.42853 | 27907 ft | 415 kts | 223° |
| 2026-05-07 16:30 | 58.77819 | 16.39293 | 28368 ft | 414 kts | 223° |
| 2026-05-07 16:31 | 58.75613 | 16.35753 | 28872 ft | 412 kts | 223° |
| 2026-05-07 16:31 | 58.73387 | 16.32183 | 29381 ft | 410 kts | 223° |
| 2026-05-07 16:31 | 58.71200 | 16.28673 | 29881 ft | 409 kts | 223° |
| 2026-05-07 16:31 | 58.69022 | 16.25184 | 30364 ft | 407 kts | 223° |
| 2026-05-07 16:32 | 58.66847 | 16.21709 | 30812 ft | 406 kts | 223° |
| 2026-05-07 16:32 | 58.64701 | 16.18300 | 31228 ft | 405 kts | 223° |
| 2026-05-07 16:32 | 58.62532 | 16.14853 | 31652 ft | 404 kts | 223° |
| 2026-05-07 16:32 | 58.60372 | 16.11418 | 32067 ft | 403 kts | 223° |
| 2026-05-07 16:33 | 58.58213 | 16.07989 | 32502 ft | 402 kts | 223° |
| 2026-05-07 16:33 | 58.56056 | 16.04576 | 32933 ft | 402 kts | 223° |
| 2026-05-07 16:33 | 58.53904 | 16.01175 | 33357 ft | 401 kts | 223° |
| 2026-05-07 16:33 | 58.51753 | 15.97779 | 33787 ft | 400 kts | 223° |
| 2026-05-07 16:34 | 58.49607 | 15.94396 | 34189 ft | 399 kts | 223° |
| 2026-05-07 16:34 | 58.47463 | 15.91018 | 34525 ft | 399 kts | 223° |
| 2026-05-07 16:34 | 58.45314 | 15.87640 | 34826 ft | 400 kts | 223° |
| 2026-05-07 16:34 | 58.43160 | 15.84263 | 35033 ft | 402 kts | 222° |
| 2026-05-07 16:35 | 58.40988 | 15.80866 | 35083 ft | 407 kts | 222° |
| 2026-05-07 16:35 | 58.36572 | 15.73964 | 35080 ft | 413 kts | 222° |
| 2026-05-07 16:36 | 58.32123 | 15.67044 | 35082 ft | 413 kts | 222° |
| 2026-05-07 16:36 | 58.27661 | 15.60126 | 35086 ft | 414 kts | 222° |
| 2026-05-07 16:37 | 58.23195 | 15.53224 | 35088 ft | 414 kts | 222° |
| 2026-05-07 16:37 | 58.18720 | 15.46327 | 35084 ft | 414 kts | 222° |
| 2026-05-07 16:38 | 58.14244 | 15.39460 | 35086 ft | 414 kts | 221° |
| 2026-05-07 16:38 | 58.09755 | 15.32611 | 35085 ft | 414 kts | 221° |
| 2026-05-07 16:39 | 58.05289 | 15.25807 | 35088 ft | 415 kts | 221° |
| 2026-05-07 16:39 | 58.00801 | 15.18982 | 35087 ft | 415 kts | 221° |
| 2026-05-07 16:40 | 57.96303 | 15.12159 | 35087 ft | 415 kts | 221° |
| 2026-05-07 16:40 | 57.91808 | 15.05371 | 35085 ft | 415 kts | 221° |
| 2026-05-07 16:41 | 57.87303 | 14.98592 | 35084 ft | 415 kts | 221° |
| 2026-05-07 16:41 | 57.82797 | 14.91823 | 35085 ft | 415 kts | 221° |
| 2026-05-07 16:42 | 57.78277 | 14.85057 | 35081 ft | 415 kts | 221° |
| 2026-05-07 16:42 | 57.73776 | 14.78357 | 35081 ft | 415 kts | 220° |
| 2026-05-07 16:43 | 57.69256 | 14.71630 | 35082 ft | 416 kts | 220° |
| 2026-05-07 16:43 | 57.64719 | 14.64905 | 35082 ft | 416 kts | 220° |
| 2026-05-07 16:44 | 57.60168 | 14.58207 | 35080 ft | 417 kts | 220° |
| 2026-05-07 16:44 | 57.55616 | 14.51506 | 35088 ft | 417 kts | 220° |
| 2026-05-07 16:45 | 57.51050 | 14.44808 | 35079 ft | 418 kts | 220° |
| 2026-05-07 16:45 | 57.46485 | 14.38129 | 35073 ft | 418 kts | 220° |
| 2026-05-07 16:46 | 57.41911 | 14.31473 | 35076 ft | 418 kts | 220° |
| 2026-05-07 16:46 | 57.37329 | 14.24833 | 35069 ft | 418 kts | 220° |
| 2026-05-07 16:47 | 57.32739 | 14.18202 | 35068 ft | 418 kts | 219° |
| 2026-05-07 16:47 | 57.28154 | 14.11607 | 35066 ft | 418 kts | 219° |
| 2026-05-07 16:48 | 57.23568 | 14.05005 | 35071 ft | 418 kts | 219° |
| 2026-05-07 16:48 | 57.18976 | 13.98418 | 35071 ft | 418 kts | 219° |
| 2026-05-07 16:49 | 57.14380 | 13.91853 | 35077 ft | 418 kts | 219° |
| 2026-05-07 16:49 | 57.09778 | 13.85288 | 35081 ft | 419 kts | 219° |
| 2026-05-07 16:50 | 57.05198 | 13.78786 | 34975 ft | 419 kts | 219° |
| 2026-05-07 16:50 | 57.02888 | 13.75519 | 34743 ft | 418 kts | 219° |
| 2026-05-07 16:50 | 57.00582 | 13.72264 | 34508 ft | 418 kts | 219° |
| 2026-05-07 16:50 | 56.98282 | 13.69020 | 34017 ft | 418 kts | 219° |
| 2026-05-07 16:51 | 56.95967 | 13.65762 | 33097 ft | 420 kts | 219° |
| 2026-05-07 16:51 | 56.93653 | 13.62511 | 32315 ft | 419 kts | 219° |
| 2026-05-07 16:51 | 56.91341 | 13.59264 | 31475 ft | 419 kts | 219° |
| 2026-05-07 16:51 | 56.89020 | 13.56008 | 30599 ft | 420 kts | 218° |
| 2026-05-07 16:52 | 56.86697 | 13.52749 | 29612 ft | 422 kts | 219° |
| 2026-05-07 16:52 | 56.84371 | 13.49489 | 28627 ft | 422 kts | 219° |
| 2026-05-07 16:52 | 56.82036 | 13.46225 | 27607 ft | 423 kts | 219° |
| 2026-05-07 16:52 | 56.79693 | 13.42959 | 26547 ft | 425 kts | 219° |
| 2026-05-07 16:53 | 56.77334 | 13.39681 | 25677 ft | 424 kts | 219° |
| 2026-05-07 16:53 | 56.75005 | 13.36459 | 25015 ft | 417 kts | 219° |
| 2026-05-07 16:53 | 56.72703 | 13.33275 | 24310 ft | 414 kts | 219° |
| 2026-05-07 16:53 | 56.70423 | 13.30122 | 23588 ft | 411 kts | 220° |
| 2026-05-07 16:54 | 56.68153 | 13.26988 | 22816 ft | 407 kts | 219° |
| 2026-05-07 16:54 | 56.65919 | 13.23905 | 22137 ft | 401 kts | 219° |
| 2026-05-07 16:54 | 56.63733 | 13.20895 | 21460 ft | 397 kts | 219° |
| 2026-05-07 16:54 | 56.61543 | 13.17883 | 20782 ft | 393 kts | 219° |
| 2026-05-07 16:55 | 56.59367 | 13.14891 | 20107 ft | 391 kts | 219° |
| 2026-05-07 16:55 | 56.57204 | 13.11914 | 19448 ft | 390 kts | 219° |
| 2026-05-07 16:55 | 56.55046 | 13.08948 | 18806 ft | 389 kts | 219° |
| 2026-05-07 16:55 | 56.52889 | 13.05995 | 18132 ft | 388 kts | 219° |
| 2026-05-07 16:56 | 56.50742 | 13.03061 | 17505 ft | 385 kts | 219° |
| 2026-05-07 16:56 | 56.48607 | 13.00150 | 16914 ft | 382 kts | 219° |
| 2026-05-07 16:56 | 56.44392 | 12.94434 | 15764 ft | 375 kts | 218° |
| 2026-05-07 16:57 | 56.42313 | 12.91617 | 15193 ft | 372 kts | 218° |
| 2026-05-07 16:57 | 56.40255 | 12.88825 | 14613 ft | 368 kts | 219° |
| 2026-05-07 16:57 | 56.38214 | 12.86053 | 14028 ft | 365 kts | 219° |
| 2026-05-07 16:57 | 56.36212 | 12.83343 | 13388 ft | 363 kts | 218° |
| 2026-05-07 16:58 | 56.34202 | 12.80627 | 12773 ft | 359 kts | 218° |
| 2026-05-07 16:58 | 56.32212 | 12.77943 | 12181 ft | 356 kts | 218° |
| 2026-05-07 16:58 | 56.30269 | 12.75325 | 12020 ft | 341 kts | 218° |
| 2026-05-07 16:58 | 56.28408 | 12.72826 | 11885 ft | 327 kts | 218° |
| 2026-05-07 16:59 | 56.26621 | 12.70434 | 11753 ft | 314 kts | 218° |
| 2026-05-07 16:59 | 56.24886 | 12.68160 | 11409 ft | 309 kts | 213° |
| 2026-05-07 16:59 | 56.22884 | 12.66650 | 10983 ft | 311 kts | 199° |
| 2026-05-07 16:59 | 56.20855 | 12.65473 | 10757 ft | 304 kts | 199° |
| 2026-05-07 17:00 | 56.18881 | 12.64309 | 10616 ft | 294 kts | 200° |
| 2026-05-07 17:00 | 56.16960 | 12.63171 | 10386 ft | 288 kts | 200° |
| 2026-05-07 17:00 | 56.15058 | 12.62041 | 10032 ft | 288 kts | 199° |
| 2026-05-07 17:00 | 56.13187 | 12.60930 | 9712 ft | 286 kts | 199° |
| 2026-05-07 17:01 | 56.11302 | 12.59813 | 9374 ft | 285 kts | 199° |
| 2026-05-07 17:01 | 56.09430 | 12.58708 | 9130 ft | 281 kts | 199° |
| 2026-05-07 17:01 | 56.07566 | 12.57611 | 8997 ft | 283 kts | 199° |
| 2026-05-07 17:01 | 56.05691 | 12.56510 | 8871 ft | 283 kts | 199° |
| 2026-05-07 17:02 | 56.03818 | 12.55414 | 8743 ft | 283 kts | 199° |
| 2026-05-07 17:02 | 56.01946 | 12.54317 | 8609 ft | 283 kts | 199° |
| 2026-05-07 17:02 | 56.00079 | 12.53227 | 8480 ft | 282 kts | 198° |
| 2026-05-07 17:02 | 55.98212 | 12.52139 | 8357 ft | 282 kts | 198° |
| 2026-05-07 17:03 | 55.96346 | 12.51052 | 8225 ft | 282 kts | 198° |
| 2026-05-07 17:03 | 55.94481 | 12.49965 | 8094 ft | 281 kts | 198° |
| 2026-05-07 17:03 | 55.92625 | 12.48883 | 7959 ft | 281 kts | 198° |
| 2026-05-07 17:03 | 55.90770 | 12.47805 | 7842 ft | 280 kts | 198° |
| 2026-05-07 17:04 | 55.88915 | 12.46726 | 7715 ft | 280 kts | 198° |
| 2026-05-07 17:04 | 55.87062 | 12.45645 | 7583 ft | 280 kts | 198° |
| 2026-05-07 17:04 | 55.85215 | 12.44567 | 7459 ft | 280 kts | 198° |
| 2026-05-07 17:04 | 55.83366 | 12.43492 | 7327 ft | 279 kts | 197° |
| 2026-05-07 17:05 | 55.81517 | 12.42423 | 7202 ft | 279 kts | 197° |
| 2026-05-07 17:05 | 55.79668 | 12.41357 | 7074 ft | 279 kts | 197° |
| 2026-05-07 17:05 | 55.77825 | 12.40292 | 6949 ft | 279 kts | 197° |
| 2026-05-07 17:05 | 55.76605 | 12.39586 | 6863 ft | 278 kts | 197° |
| 2026-05-07 17:06 | 55.74763 | 12.38524 | 6744 ft | 278 kts | 197° |
| 2026-05-07 17:06 | 55.72924 | 12.37469 | 6621 ft | 278 kts | 197° |
| 2026-05-07 17:06 | 55.71084 | 12.36417 | 6492 ft | 278 kts | 196° |
| 2026-05-07 17:06 | 55.69244 | 12.35362 | 6352 ft | 278 kts | 196° |
| 2026-05-07 17:07 | 55.67409 | 12.34310 | 6225 ft | 277 kts | 196° |
| 2026-05-07 17:07 | 55.65577 | 12.33259 | 6087 ft | 276 kts | 196° |
| 2026-05-07 17:07 | 55.63749 | 12.32209 | 5961 ft | 276 kts | 196° |
| 2026-05-07 17:07 | 55.61928 | 12.31165 | 5817 ft | 275 kts | 196° |
| 2026-05-07 17:08 | 55.60101 | 12.30119 | 5512 ft | 277 kts | 196° |
| 2026-05-07 17:08 | 55.58270 | 12.29070 | 5194 ft | 275 kts | 196° |
| 2026-05-07 17:08 | 55.56442 | 12.28024 | 4811 ft | 276 kts | 195° |
| 2026-05-07 17:08 | 55.54640 | 12.27008 | 4584 ft | 270 kts | 195° |
| 2026-05-07 17:09 | 55.52880 | 12.26022 | 4450 ft | 261 kts | 194° |
| 2026-05-07 17:09 | 55.51144 | 12.25657 | 4321 ft | 245 kts | 168° |
| 2026-05-07 17:09 | 55.49643 | 12.26774 | 4159 ft | 230 kts | 141° |
| 2026-05-07 17:09 | 55.48422 | 12.28559 | 3875 ft | 227 kts | 136° |
| 2026-05-07 17:10 | 55.47258 | 12.30409 | 3660 ft | 222 kts | 135° |
| 2026-05-07 17:10 | 55.46324 | 12.32468 | 3512 ft | 211 kts | 110° |
| 2026-05-07 17:10 | 55.46129 | 12.34940 | 3386 ft | 201 kts | 89° |
| 2026-05-07 17:10 | 55.46219 | 12.37350 | 3238 ft | 193 kts | 86° |
| 2026-05-07 17:11 | 55.46431 | 12.39633 | 3113 ft | 186 kts | 72° |
| 2026-05-07 17:11 | 55.47058 | 12.41583 | 2947 ft | 183 kts | 51° |
| 2026-05-07 17:11 | 55.47999 | 12.43112 | 2668 ft | 185 kts | 45° |
| 2026-05-07 17:11 | 55.48959 | 12.44576 | 2459 ft | 185 kts | 44° |
| 2026-05-07 17:12 | 55.49915 | 12.46037 | 2342 ft | 177 kts | 45° |
| 2026-05-07 17:12 | 55.50827 | 12.47435 | 2180 ft | 170 kts | 44° |
| 2026-05-07 17:12 | 55.51689 | 12.48756 | 2080 ft | 155 kts | 45° |
| 2026-05-07 17:12 | 55.52457 | 12.49933 | 1975 ft | 141 kts | 45° |
| 2026-05-07 17:13 | 55.53184 | 12.51050 | 1820 ft | 136 kts | 45° |
| 2026-05-07 17:13 | 55.53892 | 12.52140 | 1634 ft | 134 kts | 45° |
| 2026-05-07 17:13 | 55.54590 | 12.53220 | 1469 ft | 134 kts | 45° |
| 2026-05-07 17:13 | 55.55290 | 12.54296 | 1280 ft | 133 kts | 45° |
| 2026-05-07 17:14 | 55.55990 | 12.55375 | 1036 ft | 133 kts | 45° |
| 2026-05-07 17:14 | 55.56684 | 12.56442 | 820 ft | 131 kts | 42° |
| 2026-05-07 17:14 | 55.57366 | 12.57493 | 593 ft | 130 kts | 39° |
| 2026-05-07 17:14 | 55.58048 | 12.58544 | 378 ft | 130 kts | 39° |
| 2026-05-07 17:15 | 55.58725 | 12.59590 | 197 ft | 129 kts | 38° |
| 2026-05-07 17:15 | 55.59398 | 12.60627 | 44 ft | 128 kts | 38° |
| 2026-05-07 17:15 | 55.59992 | 12.61536 | 27 ft | 90 kts | 41° |
| 2026-05-07 17:15 | 55.60341 | 12.62077 | 23 ft | 54 kts | 40° |
| 2026-05-07 17:16 | 55.60610 | 12.62495 | 27 ft | 48 kts | 42° |
| 2026-05-07 17:16 | 55.60851 | 12.62871 | 26 ft | 44 kts | 40° |
| 2026-05-07 17:16 | 55.61075 | 12.63213 | 27 ft | 41 kts | 41° |
| 2026-05-07 17:16 | 55.61277 | 12.63534 | 27 ft | 38 kts | 41° |
| 2026-05-07 17:17 | 55.61428 | 12.63767 | 26 ft | 13 kts | 42° |
| 2026-05-07 17:17 | 55.61503 | 12.63826 | 27 ft | 12 kts | 1° |
| 2026-05-07 17:17 | 55.61578 | 12.63820 | 26 ft | 10 kts | 357° |
| 2026-05-07 17:17 | 55.61650 | 12.63810 | 25 ft | 11 kts | 356° |
| 2026-05-07 17:18 | 55.61729 | 12.63852 | 26 ft | 14 kts | 36° |
| 2026-05-07 17:18 | 55.61800 | 12.63960 | 26 ft | 14 kts | 41° |
| 2026-05-07 17:18 | 55.61835 | 12.64014 | 24 ft | 1 kts | 41° |
| 2026-05-07 17:18 | 55.61852 | 12.64040 | 24 ft | 5 kts | 41° |
| 2026-05-07 17:19 | 55.61889 | 12.64088 | 25 ft | 8 kts | 30° |
| 2026-05-07 17:19 | 55.61953 | 12.64138 | 24 ft | 12 kts | 22° |
| 2026-05-07 17:19 | 55.62026 | 12.64199 | 25 ft | 10 kts | 26° |
| 2026-05-07 17:19 | 55.62098 | 12.64263 | 24 ft | 13 kts | 26° |
| 2026-05-07 17:20 | 55.62195 | 12.64343 | 22 ft | 18 kts | 23° |
| 2026-05-07 17:20 | 55.62296 | 12.64402 | 23 ft | 14 kts | 12° |
| 2026-05-07 17:20 | 55.62360 | 12.64433 | 26 ft | 7 kts | 22° |
| 2026-05-07 17:20 | 55.62384 | 12.64460 | 24 ft | 2 kts | 40° |
| 2026-05-07 17:21 | 55.62389 | 12.64518 | 24 ft | 7 kts | 103° |
| 2026-05-07 17:21 | 55.62359 | 12.64611 | 24 ft | 10 kts | 121° |
| 2026-05-07 17:21 | 55.62333 | 12.64719 | 24 ft | 10 kts | 92° |
| 2026-05-07 17:21 | 55.62372 | 12.64776 | 24 ft | 9 kts | 359° |
| 2026-05-07 17:22 | 55.62419 | 12.64698 | 24 ft | 9 kts | 312° |
| 2026-05-07 17:22 | 55.62488 | 12.64661 | 24 ft | 9 kts | 351° |
| 2026-05-07 17:22 | 55.62563 | 12.64654 | 24 ft | 12 kts | 359° |
| 2026-05-07 17:22 | 55.62622 | 12.64659 | 24 ft | 6 kts | 1° |
| 2026-05-07 17:23 | 55.62642 | 12.64613 | 24 ft | 6 kts | 282° |
| 2026-05-07 17:23 | 55.62647 | 12.64569 | 24 ft | 2 kts | 281° |
| 2026-05-07 17:23 | 55.62648 | 12.64559 | 24 ft | 0 kts | 281° |